Time;durP1;ratioP1;P1;durP2;ratioP2;P2;SDS_P1;SDS_P2;PMS_P1;PMS_P2;Temp;Humidity;BMP_temperature;BMP_pressure;BME280_temperature;BME280_humidity;BME280_pressure;Samples;Min_cycle;Max_cycle;Signal;HPM_P1;HPM_P2
2022/06/10 00:00:16;;;;;;;9.43;8.53;;;;;;;20.31;86.88;98587.22;5052016;28;20307;-57
2022/06/10 00:02:43;;;;;;;11.23;7.70;;;;;;;20.18;87.02;98592.03;5053623;28;20609;-57
2022/06/10 00:05:13;;;;;;;10.33;9.33;;;;;;;20.20;86.95;98594.56;5054282;28;20192;-57
2022/06/10 00:07:41;;;;;;;10.33;9.33;;;;;;;20.18;87.24;98596.38;5053343;28;20703;-57
2022/06/10 00:10:09;;;;;;;10.47;9.43;;;;;;;20.18;87.90;98601.59;5053096;28;20227;-57
2022/06/10 00:12:36;;;;;;;11.23;10.20;;;;;;;20.09;87.96;98578.44;5053387;28;20189;-56
2022/06/10 00:15:07;;;;;;;13.93;12.43;;;;;;;20.19;87.85;98593.72;5053378;28;20194;-56
2022/06/10 00:17:34;;;;;;;12.70;11.63;;;;;;;20.21;88.47;98589.31;5055742;28;20539;-56
2022/06/10 00:20:03;;;;;;;14.20;13.00;;;;;;;20.19;88.88;98592.88;5072964;28;20225;-56
2022/06/10 00:22:30;;;;;;;14.87;13.47;;;;;;;20.16;89.03;98600.81;5073156;28;20188;-56
2022/06/10 00:24:57;;;;;;;15.40;14.10;;;;;;;20.00;89.63;98585.72;5072153;28;20191;-56
2022/06/10 00:27:25;;;;;;;15.77;14.27;;;;;;;20.21;90.05;98617.13;5072715;28;20195;-56
2022/06/10 00:29:52;;;;;;;14.90;13.60;;;;;;;20.23;89.55;98621.41;5073503;28;20184;-57
2022/06/10 00:32:20;;;;;;;15.27;13.87;;;;;;;20.25;89.69;98617.00;5072999;28;20195;-56
2022/06/10 00:34:47;;;;;;;14.80;13.50;;;;;;;20.28;89.37;98609.06;5072965;28;20196;-56
2022/06/10 00:37:14;;;;;;;15.07;13.57;;;;;;;20.31;89.49;98602.88;5073099;28;20195;-57
2022/06/10 00:39:40;;;;;;;14.85;13.45;;;;;;;20.34;89.78;98607.97;5072804;28;20452;-56
2022/06/10 00:42:08;;;;;;;15.47;14.17;;;;;;;20.36;89.42;98599.19;5072842;28;20998;-56
2022/06/10 00:44:39;;;;;;;14.37;13.03;;;;;;;20.33;88.93;98596.69;5072927;28;20582;-56
2022/06/10 00:47:13;;;;;;;15.30;13.97;;;;;;;20.37;89.00;98598.28;5070210;28;20196;-65
2022/06/10 00:49:42;;;;;;;15.57;14.03;;;;;;;20.44;89.12;98604.97;5052735;28;20283;-64
2022/06/10 00:52:19;;;;;;;16.07;14.67;;;;;;;20.31;88.68;98579.41;5052637;28;20189;-65
2022/06/10 00:54:46;;;;;;;15.17;13.87;;;;;;;20.39;88.92;98595.63;5070217;28;20195;-65
2022/06/10 00:57:18;;;;;;;15.47;13.90;;;;;;;20.40;88.86;98592.09;5072686;28;20578;-65
2022/06/10 00:59:49;;;;;;;16.80;15.13;;;;;;;20.42;88.92;98590.28;5072555;28;20284;-65
2022/06/10 01:02:18;;;;;;;17.77;16.17;;;;;;;20.44;88.06;98588.44;5072548;28;20187;-64
2022/06/10 01:04:46;;;;;;;19.90;18.00;;;;;;;20.38;87.88;98583.50;5072523;28;20191;-64
2022/06/10 01:07:18;;;;;;;18.50;16.90;;;;;;;20.26;88.54;98589.16;5072333;28;20215;-64
2022/06/10 01:09:47;;;;;;;18.60;16.73;;;;;;;20.16;89.00;98588.59;5071979;28;20219;-64
2022/06/10 01:12:35;;;;;;;16.87;15.20;;;;;;;20.08;90.06;98593.25;5072634;28;20214;-64
2022/06/10 01:15:28;;;;;;;18.35;16.85;;;;;;;20.08;90.28;98579.38;5071879;28;20532;-64
2022/06/10 01:18:08;;;;;;;17.50;16.00;;;;;;;20.08;89.91;98592.41;5072284;28;20249;-64
2022/06/10 01:20:48;;;;;;;17.23;15.53;;;;;;;20.01;89.91;98586.56;5072225;28;20223;-64
2022/06/10 01:23:52;;;;;;;17.10;15.60;;;;;;;19.87;90.87;98599.25;5072409;28;20214;-65
2022/06/10 01:30:12;;;;;;;18.53;16.73;;;;;;;20.02;90.06;98602.13;5072278;28;20187;-65
2022/06/10 01:32:52;;;;;;;19.03;17.00;;;;;;;20.08;89.97;98610.69;5072263;28;20195;-64
2022/06/10 01:35:26;;;;;;;18.97;17.17;;;;;;;20.12;89.93;98613.09;5072190;28;20195;-63
2022/06/10 01:38:02;;;;;;;18.60;16.70;;;;;;;20.18;89.54;98614.63;5058807;28;20204;-65
2022/06/10 01:40:39;;;;;;;18.97;17.27;;;;;;;20.21;89.49;98618.00;5051695;28;20226;-64
2022/06/10 01:43:16;;;;;;;17.93;16.30;;;;;;;20.25;89.22;98622.22;5052034;28;20200;-64
2022/06/10 01:45:50;;;;;;;18.67;16.93;;;;;;;20.16;88.58;98609.47;5051670;28;20655;-63
2022/06/10 01:48:23;;;;;;;18.40;16.73;;;;;;;20.25;88.81;98627.44;5052108;28;20195;-64
2022/06/10 01:50:56;;;;;;;19.03;17.30;;;;;;;20.31;89.12;98623.75;5051806;28;20203;-64
2022/06/10 01:53:30;;;;;;;19.00;17.30;;;;;;;20.29;89.36;98621.22;5051317;28;20196;-64
2022/06/10 01:56:03;;;;;;;20.10;18.17;;;;;;;20.31;89.82;98623.75;5051390;28;20200;-64
2022/06/10 01:58:36;;;;;;;19.90;17.90;;;;;;;20.26;90.29;98618.72;5051463;28;20200;-64
2022/06/10 02:01:07;;;;;;;21.60;19.67;;;;;;;20.25;90.44;98617.00;5052904;28;20192;-65
2022/06/10 02:03:39;;;;;;;23.60;21.40;;;;;;;20.08;90.63;98610.69;5071132;28;20206;-64
2022/06/10 02:06:11;;;;;;;22.63;20.47;;;;;;;20.05;90.83;98611.63;5071471;28;20203;-63
2022/06/10 02:08:42;;;;;;;24.77;22.38;;;;;;;20.11;91.50;98606.19;5070433;28;20449;-63
2022/06/10 02:11:13;;;;;;;21.10;19.07;;;;;;;20.14;91.22;98610.44;5071324;28;20199;-64
2022/06/10 02:13:48;;;;;;;19.73;17.60;;;;;;;20.14;91.30;98595.63;5071137;28;20196;-64
2022/06/10 02:16:19;;;;;;;20.17;18.37;;;;;;;20.18;91.10;98599.84;5071365;28;20178;-64
2022/06/10 02:18:51;;;;;;;28.70;24.60;;;;;;;20.17;90.81;98605.97;5071516;28;20186;-65
2022/06/10 02:21:24;;;;;;;30.40;27.50;;;;;;;20.19;90.83;98611.13;5070697;28;20191;-65
2022/06/10 02:23:57;;;;;;;30.07;26.90;;;;;;;20.22;90.50;98611.00;5070680;28;20198;-65
2022/06/10 02:26:27;;;;;;;29.93;26.83;;;;;;;20.16;90.03;98599.03;5070808;28;20438;-65
2022/06/10 02:28:57;;;;;;;28.93;26.03;;;;;;;20.14;90.03;98600.00;5070390;28;20248;-64
2022/06/10 02:31:29;;;;;;;25.00;22.43;;;;;;;19.96;90.26;98584.13;5064068;28;20256;-65
2022/06/10 02:33:58;;;;;;;22.43;20.43;;;;;;;20.07;90.36;98620.25;5061309;28;20199;-57
2022/06/10 02:36:32;;;;;;;23.90;21.43;;;;;;;20.04;90.66;98630.78;5068270;28;20188;-57
2022/06/10 02:39:04;;;;;;;22.63;20.40;;;;;;;20.05;90.34;98629.91;5070201;28;20187;-57
2022/06/10 02:41:39;;;;;;;22.23;19.77;;;;;;;19.98;90.02;98613.59;5062145;28;20582;-57
2022/06/10 02:44:31;;;;;;;21.97;19.83;;;;;;;19.95;89.72;98625.88;5066355;28;20195;-57
2022/06/10 02:47:07;;;;;;;20.53;18.53;;;;;;;19.89;90.61;98628.72;5069929;28;20187;-57
2022/06/10 02:49:36;;;;;;;21.37;19.50;;;;;;;19.81;90.96;98636.81;5069834;28;20270;-57
2022/06/10 02:52:03;;;;;;;21.20;19.00;;;;;;;19.93;90.42;98653.78;5067167;28;20195;-57
2022/06/10 02:54:32;;;;;;;23.00;20.63;;;;;;;20.02;90.41;98654.28;5069965;28;20187;-57
2022/06/10 02:57:10;;;;;;;21.93;19.73;;;;;;;20.10;89.79;98640.16;5069788;28;20195;-57
2022/06/10 03:02:28;;;;;;;23.57;21.30;;;;;;;19.80;89.88;98652.50;5070230;28;20593;-57
2022/06/10 03:05:10;;;;;;;21.30;19.30;;;;;;;19.91;89.58;98664.25;5065028;28;20195;-57
2022/06/10 03:07:55;;;;;;;21.30;19.23;;;;;;;19.96;88.67;98664.97;5069475;28;20290;-57
2022/06/10 03:10:31;;;;;;;23.15;20.80;;;;;;;19.95;88.72;98657.19;5049710;28;20930;-57
2022/06/10 03:13:26;;;;;;;20.57;18.70;;;;;;;19.94;88.76;98658.09;5061785;28;20199;-57
2022/06/10 03:16:07;;;;;;;23.03;20.73;;;;;;;20.01;88.92;98662.19;5069049;28;20214;-57
2022/06/10 03:18:46;;;;;;;22.43;20.23;;;;;;;20.03;89.28;98663.84;5070207;28;20227;-57
2022/06/10 03:21:27;;;;;;;22.57;20.13;;;;;;;20.05;88.81;98662.94;5070052;28;20219;-57
2022/06/10 03:24:07;;;;;;;22.00;20.00;;;;;;;20.15;88.36;98670.38;5070053;28;20198;-56
2022/06/10 03:26:42;;;;;;;22.77;20.57;;;;;;;20.31;87.67;98668.09;5063316;28;20195;-56
2022/06/10 03:29:17;;;;;;;22.07;19.97;;;;;;;20.43;87.39;98671.13;5069568;28;20226;-57
2022/06/10 03:31:50;;;;;;;21.93;19.67;;;;;;;20.51;86.22;98683.91;5068136;28;20214;-57
2022/06/10 03:34:23;;;;;;;20.13;18.23;;;;;;;20.48;85.27;98684.84;5072421;28;20203;-57
2022/06/10 03:36:53;;;;;;;19.63;17.83;;;;;;;20.45;85.17;98684.97;5074378;28;20222;-57
2022/06/10 03:39:22;;;;;;;19.60;17.80;;;;;;;20.43;85.33;98685.94;5074017;28;20195;-57
2022/06/10 03:42:00;;;;;;;20.23;18.23;;;;;;;20.34;85.53;98694.94;5074056;28;20253;-57
2022/06/10 03:44:28;;;;;;;21.17;19.20;;;;;;;20.41;85.13;98700.78;5073880;28;20195;-57
2022/06/10 03:46:57;;;;;;;19.90;18.13;;;;;;;20.33;85.16;98708.88;5074145;28;20198;-57
2022/06/10 03:49:30;;;;;;;21.20;19.33;;;;;;;20.34;85.02;98715.81;5073836;28;20188;-57
2022/06/10 03:52:01;;;;;;;20.77;18.63;;;;;;;20.26;85.39;98710.00;5074057;28;20195;-57
2022/06/10 03:54:28;;;;;;;21.03;19.10;;;;;;;20.31;85.46;98709.84;5073969;28;20210;-57
2022/06/10 03:56:55;;;;;;;22.13;20.08;;;;;;;20.37;85.29;98697.44;5073178;28;20434;-57
2022/06/10 03:59:22;;;;;;;21.80;19.63;;;;;;;20.47;85.26;98698.81;5073451;28;20195;-56
2022/06/10 04:01:48;;;;;;;20.73;18.73;;;;;;;20.48;84.64;98700.50;5073450;28;20202;-56
2022/06/10 04:04:15;;;;;;;22.52;20.42;;;;;;;20.56;84.74;98701.09;5072401;28;20437;-57
2022/06/10 04:06:42;;;;;;;23.00;20.40;;;;;;;20.67;84.89;98705.06;5073368;28;20577;-57
2022/06/10 04:09:14;;;;;;;20.93;18.93;;;;;;;20.71;84.55;98698.81;5073339;28;20227;-57
2022/06/10 04:11:41;;;;;;;22.50;20.30;;;;;;;20.76;84.48;98695.13;5073404;28;20187;-57
2022/06/10 04:14:08;;;;;;;21.53;19.53;;;;;;;20.73;84.22;98694.38;5070507;28;21088;-57
2022/06/10 04:16:35;;;;;;;24.15;21.90;;;;;;;20.86;83.88;98686.03;5072592;28;20444;-57
2022/06/10 04:19:02;;;;;;;22.60;20.60;;;;;;;20.89;83.28;98683.31;5058574;28;20200;-56
2022/06/10 04:21:29;;;;;;;21.50;19.60;;;;;;;20.98;82.71;98689.94;5053357;28;20637;-57
2022/06/10 04:23:56;;;;;;;22.27;20.37;;;;;;;21.14;82.62;98693.69;5052359;28;20447;-56
2022/06/10 04:26:24;;;;;;;21.83;19.67;;;;;;;21.24;81.40;98692.41;5067442;28;20192;-57
2022/06/10 04:28:51;;;;;;;20.70;18.77;;;;;;;21.44;81.00;98697.69;5073075;28;20192;-57
2022/06/10 04:31:18;;;;;;;20.80;18.83;;;;;;;21.55;80.23;98697.25;5053741;28;20193;-57
2022/06/10 04:33:45;;;;;;;20.93;18.83;;;;;;;21.51;79.73;98700.91;5057844;28;20260;-64
2022/06/10 04:36:15;;;;;;;22.60;19.20;;;;;;;21.47;80.36;98697.59;5070258;28;20200;-57
2022/06/10 04:38:42;;;;;;;20.10;18.20;;;;;;;21.49;80.28;98690.53;5072692;28;20191;-57
2022/06/10 04:41:10;;;;;;;19.67;17.97;;;;;;;21.58;80.01;98691.91;5072761;28;20559;-57
2022/06/10 04:43:39;;;;;;;20.17;18.37;;;;;;;21.66;79.58;98701.16;5072786;28;20198;-57
2022/06/10 04:46:09;;;;;;;19.50;17.53;;;;;;;21.60;79.38;98716.22;5071367;28;20194;-57
2022/06/10 04:48:36;;;;;;;24.30;18.10;;;;;;;21.45;79.76;98712.44;5072783;28;20191;-57
2022/06/10 04:51:04;;;;;;;20.83;18.70;;;;;;;21.50;80.53;98704.44;5072578;28;20194;-57
2022/06/10 04:53:31;;;;;;;22.20;20.00;;;;;;;21.44;80.74;98708.16;5068300;28;20441;-57
2022/06/10 04:55:57;;;;;;;21.57;19.57;;;;;;;21.53;80.19;98713.03;5072484;28;20206;-58
2022/06/10 04:58:24;;;;;;;22.50;17.70;;;;;;;21.45;80.38;98704.63;5069353;28;20674;-57
2022/06/10 05:00:52;;;;;;;20.00;18.10;;;;;;;21.41;80.51;98703.03;5065879;28;20215;-59
2022/06/10 05:03:20;;;;;;;21.07;19.07;;;;;;;21.40;80.81;98716.19;5069254;28;20195;-57
2022/06/10 05:05:46;;;;;;;22.03;19.73;;;;;;;21.41;80.56;98708.28;5071650;28;20678;-57
2022/06/10 05:08:16;;;;;;;21.20;19.10;;;;;;;21.50;81.11;98718.38;5071286;28;20195;-57
2022/06/10 05:10:42;;;;;;;27.63;19.17;;;;;;;21.61;80.58;98723.16;5069377;28;20188;-58
2022/06/10 05:13:09;;;;;;;21.00;18.43;;;;;;;21.61;80.36;98731.00;5071868;28;20224;-57
2022/06/10 05:15:37;;;;;;;21.73;19.67;;;;;;;21.51;79.84;98727.03;5071322;28;20928;-57
2022/06/10 05:18:06;;;;;;;19.27;17.40;;;;;;;21.40;80.13;98729.25;5071760;28;20214;-57
2022/06/10 05:20:36;;;;;;;19.83;17.90;;;;;;;21.32;80.40;98724.31;5071657;28;20314;-57
2022/06/10 05:23:03;;;;;;;20.93;18.73;;;;;;;;;;5071634;28;20204;-57
2022/06/10 05:25:31;;;;;;;19.13;16.87;;;;;;;21.48;80.39;98737.66;5071696;28;20278;-57
2022/06/10 05:27:58;;;;;;;20.63;18.53;;;;;;;21.53;80.04;98736.56;5071503;28;20188;-57
2022/06/10 05:30:28;;;;;;;25.70;21.20;;;;;;;21.67;80.05;98731.59;5071422;28;20202;-57
2022/06/10 05:32:55;;;;;;;20.00;18.17;;;;;;;21.75;79.58;98739.16;5071433;28;20286;-57
2022/06/10 05:35:24;;;;;;;19.67;17.83;;;;;;;21.81;78.65;98735.44;5071714;28;20191;-57
2022/06/10 05:37:51;;;;;;;20.30;18.40;;;;;;;21.86;78.72;98743.94;5071225;28;20202;-57
2022/06/10 05:40:19;;;;;;;20.63;18.47;;;;;;;21.86;78.73;98739.56;5064752;28;20321;-57
2022/06/10 05:42:46;;;;;;;20.87;18.80;;;;;;;21.78;78.78;98739.84;5051508;28;20204;-57
2022/06/10 05:45:17;;;;;;;20.90;18.80;;;;;;;21.85;78.89;98719.53;5050976;28;20450;-56
2022/06/10 05:47:45;;;;;;;19.67;17.83;;;;;;;21.87;77.91;98727.34;5053459;28;20436;-56
2022/06/10 05:50:15;;;;;;;19.73;17.87;;;;;;;22.21;77.24;98738.97;5071267;28;20195;-56
2022/06/10 05:52:44;;;;;;;19.63;17.67;;;;;;;22.37;76.85;98733.03;5065700;28;20196;-56
2022/06/10 05:55:12;;;;;;;21.30;17.57;;;;;;;22.51;76.03;98728.91;5067775;28;20203;-57
2022/06/10 05:57:40;;;;;;;18.43;16.83;;;;;;;22.60;74.76;98751.22;5067545;28;20192;-57
2022/06/10 06:00:09;;;;;;;18.60;16.43;;;;;;;22.77;73.47;98744.34;5070670;28;20204;-57
2022/06/10 06:02:36;;;;;;;17.03;15.23;;;;;;;22.84;73.69;98742.31;5071136;28;20223;-65
2022/06/10 06:05:03;;;;;;;17.87;16.03;;;;;;;22.98;73.51;98733.81;5071018;28;20191;-66
2022/06/10 06:07:31;;;;;;;20.03;18.00;;;;;;;23.08;72.91;98728.06;5070889;28;20700;-65
2022/06/10 06:09:59;;;;;;;17.33;15.40;;;;;;;23.17;72.56;98734.66;5070459;28;20601;-65
2022/06/10 06:12:26;;;;;;;23.92;19.80;;;;;;;23.36;72.22;98731.09;5068755;28;20449;-65
2022/06/10 06:14:53;;;;;;;22.00;16.40;;;;;;;23.44;71.20;98739.47;5067204;28;20677;-64
2022/06/10 06:17:21;;;;;;;18.23;16.57;;;;;;;23.35;70.83;98731.16;5067405;28;20644;-64
2022/06/10 06:19:48;;;;;;;20.47;16.63;;;;;;;23.27;71.10;98730.69;5070716;28;20649;-64
2022/06/10 06:22:15;;;;;;;20.60;18.50;;;;;;;23.21;71.43;98731.81;5069280;28;20219;-64
2022/06/10 06:24:42;;;;;;;18.03;16.33;;;;;;;23.24;71.55;98741.34;5070501;28;20204;-65
2022/06/10 06:27:13;;;;;;;19.07;17.10;;;;;;;23.29;71.71;98752.44;5069945;28;20218;-64
2022/06/10 06:29:40;;;;;;;17.47;15.77;;;;;;;23.01;71.40;98755.50;5071280;28;20195;-65
2022/06/10 06:32:08;;;;;;;16.90;15.30;;;;;;;23.05;71.58;98748.31;5070655;28;20188;-65
2022/06/10 06:34:35;;;;;;;22.43;20.23;;;;;;;23.24;71.49;98743.97;5070476;28;20199;-65
2022/06/10 06:37:02;;;;;;;20.23;18.30;;;;;;;23.16;71.31;98746.06;5069512;28;20444;-65
2022/06/10 06:39:29;;;;;;;18.53;16.67;;;;;;;23.55;70.70;98746.84;5070036;28;20697;-65
2022/06/10 06:41:56;;;;;;;16.73;15.30;;;;;;;23.46;69.26;98752.50;5068973;28;20215;-64
2022/06/10 06:44:24;;;;;;;18.83;17.07;;;;;;;23.43;70.58;98750.88;5070581;28;20199;-65
2022/06/10 06:46:51;;;;;;;23.53;20.27;;;;;;;23.73;70.12;98761.69;5069960;28;20202;-64
2022/06/10 06:49:22;;;;;;;20.97;18.77;;;;;;;23.87;70.00;98764.47;5069738;28;20199;-64
2022/06/10 06:51:50;;;;;;;22.33;20.13;;;;;;;23.88;69.89;98771.44;5070068;28;20206;-64
2022/06/10 06:54:18;;;;;;;21.53;19.27;;;;;;;23.73;69.64;98755.59;5069684;28;20699;-63
2022/06/10 06:56:45;;;;;;;22.17;19.93;;;;;;;23.62;69.84;98765.75;5068087;28;20187;-65
2022/06/10 06:59:12;;;;;;;23.35;20.95;;;;;;;23.56;70.72;98769.53;5069317;28;20812;-64
2022/06/10 07:01:40;;;;;;;22.00;19.70;;;;;;;23.71;71.06;98775.78;5063510;28;20590;-66
2022/06/10 07:04:07;;;;;;;24.17;19.67;;;;;;;23.85;70.47;98770.72;5066653;28;20295;-65
2022/06/10 07:06:35;;;;;;;25.90;21.93;;;;;;;23.91;69.93;98767.81;5069294;28;20195;-66
2022/06/10 07:09:02;;;;;;;23.10;18.87;;;;;;;23.91;69.91;98768.66;5069052;28;20266;-64
2022/06/10 07:11:31;;;;;;;21.43;18.40;;;;;;;24.07;69.57;98755.63;5069468;28;20187;-65
2022/06/10 07:13:58;;;;;;;20.87;18.87;;;;;;;24.21;68.36;98739.19;5069304;28;20203;-64
2022/06/10 07:16:24;;;;;;;21.67;19.30;;;;;;;24.13;68.54;98746.63;5068973;28;20195;-65
2022/06/10 07:18:53;;;;;;;21.87;19.77;;;;;;;24.43;67.96;98751.16;5052511;28;20529;-63
2022/06/10 07:21:22;;;;;;;21.03;18.43;;;;;;;24.60;67.01;98758.16;5060054;28;20215;-65
2022/06/10 07:23:49;;;;;;;22.03;19.37;;;;;;;24.71;67.05;98758.44;5069360;28;20199;-64
2022/06/10 07:26:16;;;;;;;22.23;19.83;;;;;;;24.80;66.39;98765.91;5063588;28;20245;-65
2022/06/10 07:28:43;;;;;;;22.13;19.98;;;;;;;24.54;66.24;98766.34;5064407;28;20525;-65
2022/06/10 07:31:11;;;;;;;21.47;19.47;;;;;;;24.49;66.73;98765.75;5069044;28;20180;-65
2022/06/10 07:33:38;;;;;;;21.17;19.07;;;;;;;24.65;67.21;98764.88;5068498;28;20207;-64
2022/06/10 07:36:07;;;;;;;21.73;19.73;;;;;;;24.84;64.78;98759.53;5069204;28;20203;-63
2022/06/10 07:38:34;;;;;;;21.87;19.87;;;;;;;25.13;64.55;98764.06;5069463;28;20191;-64
2022/06/10 07:43:51;;;;;;;22.80;20.53;;;;;;;24.59;66.51;98762.56;5058391;28;20658;-64
2022/06/10 07:46:21;;;;;;;23.03;20.70;;;;;;;24.82;65.69;98761.41;5069277;28;20207;-65
2022/06/10 07:48:49;;;;;;;23.73;21.33;;;;;;;25.03;64.85;98744.47;5069069;28;20692;-64
2022/06/10 07:51:19;;;;;;;26.93;22.83;;;;;;;25.31;63.77;98738.53;5069534;28;20191;-63
2022/06/10 07:53:46;;;;;;;24.77;21.80;;;;;;;24.62;65.37;98744.03;5069218;28;20187;-64
2022/06/10 07:56:16;;;;;;;22.53;20.13;;;;;;;25.10;64.38;98766.88;5068718;28;20196;-65
2022/06/10 07:58:45;;;;;;;23.07;20.83;;;;;;;25.20;63.72;98775.09;5069149;28;20270;-64
2022/06/10 08:01:12;;;;;;;23.80;21.40;;;;;;;25.28;62.87;98764.16;5067962;28;20212;-65
2022/06/10 08:03:39;;;;;;;23.90;21.37;;;;;;;25.19;62.78;98761.09;5068611;28;20195;-64
2022/06/10 08:06:07;;;;;;;24.13;21.70;;;;;;;25.16;63.10;98766.53;5068461;28;20188;-64
2022/06/10 08:08:35;;;;;;;25.23;22.73;;;;;;;25.34;62.74;98769.09;5052736;28;20287;-64
2022/06/10 08:11:02;;;;;;;27.60;24.87;;;;;;;25.57;62.62;98768.69;5049293;28;20192;-64
2022/06/10 08:13:29;;;;;;;22.87;20.77;;;;;;;25.16;62.48;98774.41;5049005;28;20196;-64
2022/06/10 08:15:56;;;;;;;24.80;22.40;;;;;;;24.93;63.78;98779.22;5049467;28;20555;-64
2022/06/10 08:18:23;;;;;;;26.47;23.67;;;;;;;25.08;64.05;98789.75;5049356;28;20203;-65
2022/06/10 08:23:37;;;;;;;24.53;22.03;;;;;;;25.64;63.68;98796.34;5052752;28;20195;-65
2022/06/10 08:26:06;;;;;;;24.80;22.33;;;;;;;25.78;62.62;98775.38;5052930;28;20737;-63
2022/06/10 08:28:35;;;;;;;24.37;21.93;;;;;;;25.50;62.16;98785.75;5052137;28;20200;-64
2022/06/10 08:31:02;;;;;;;24.70;22.07;;;;;;;25.63;63.15;98794.66;5051879;28;20242;-64
2022/06/10 08:33:29;;;;;;;25.17;22.60;;;;;;;25.89;61.85;98783.50;5052215;28;20184;-64
2022/06/10 08:35:56;;;;;;;24.33;21.80;;;;;;;26.10;61.15;98779.63;5052362;28;20211;-64
2022/06/10 08:38:24;;;;;;;27.83;22.80;;;;;;;26.14;60.98;98783.84;5052440;28;20189;-64
2022/06/10 08:40:58;;;;;;;25.27;22.77;;;;;;;25.88;60.98;98781.81;5051885;28;20204;-65
2022/06/10 08:43:43;;;;;;;25.73;23.23;;;;;;;25.67;61.63;98761.97;5052714;28;20302;-64
2022/06/10 08:46:24;;;;;;;29.60;26.53;;;;;;;25.94;60.99;98778.81;5052744;28;20793;-64
2022/06/10 08:49:16;;;;;;;27.27;24.57;;;;;;;25.54;62.90;98774.13;5052350;28;20196;-64
2022/06/10 08:51:52;;;;;;;24.97;22.47;;;;;;;25.64;62.18;98777.94;5052250;28;20691;-64
2022/06/10 08:54:20;;;;;;;27.70;24.30;;;;;;;25.82;61.97;98776.91;5053778;28;20645;-64
2022/06/10 08:56:51;;;;;;;27.00;24.00;;;;;;;24.77;64.21;98778.31;5072100;28;20565;-64
2022/06/10 08:59:25;;;;;;;27.57;24.67;;;;;;;24.42;65.66;98772.25;5071826;28;20215;-64
2022/06/10 09:02:05;;;;;;;28.63;25.70;;;;;;;24.74;66.01;98781.09;5071726;28;20229;-64
2022/06/10 09:04:43;;;;;;;28.57;24.50;;;;;;;24.96;65.67;98785.16;5072122;28;20202;-64
2022/06/10 09:07:17;;;;;;;26.73;24.03;;;;;;;25.23;64.97;98778.41;5072296;28;20196;-64
2022/06/10 09:09:45;;;;;;;26.40;23.67;;;;;;;25.32;63.90;98779.69;5071968;28;20227;-63
2022/06/10 09:12:21;;;;;;;27.40;24.43;;;;;;;25.15;64.47;98780.63;5072399;28;20192;-64
2022/06/10 09:14:50;;;;;;;28.33;25.42;;;;;;;25.43;63.75;98784.38;5071175;28;20805;-64
2022/06/10 09:17:22;;;;;;;28.20;25.17;;;;;;;25.66;63.05;98789.22;5071869;28;20286;-66
2022/06/10 09:19:59;;;;;;;29.03;24.00;;;;;;;25.67;63.21;98773.34;5056360;28;20671;-65
2022/06/10 09:22:35;;;;;;;28.03;24.13;;;;;;;25.39;62.23;98744.22;5071384;28;20528;-64
2022/06/10 09:25:07;;;;;;;28.73;24.25;;;;;;;25.15;63.84;98772.72;5071047;28;20429;-64
2022/06/10 09:27:38;;;;;;;26.87;22.77;;;;;;;25.44;63.95;98765.00;5056433;28;20200;-64
2022/06/10 09:30:07;;;;;;;29.97;21.50;;;;;;;25.50;61.22;98748.91;5061738;28;20213;-64
2022/06/10 09:32:43;;;;;;;27.30;20.87;;;;;;;25.09;62.80;98764.31;5063616;28;20663;-64
2022/06/10 09:35:20;;;;;;;23.83;20.20;;;;;;;24.94;63.34;98760.72;5051745;28;20991;-64
2022/06/10 09:37:54;;;;;;;24.07;20.60;;;;;;;25.12;63.71;98759.75;5051678;28;20705;-64
2022/06/10 09:40:39;;;;;;;34.37;23.23;;;;;;;24.94;64.40;98750.22;5051222;28;20682;-63
2022/06/10 09:43:33;;;;;;;24.27;21.47;;;;;;;24.47;64.01;98755.34;5050831;28;20220;-64
2022/06/10 09:46:13;;;;;;;24.33;21.10;;;;;;;24.58;64.18;98757.41;5049567;28;20202;-63
2022/06/10 09:49:03;;;;;;;24.97;22.27;;;;;;;24.63;64.74;98760.63;5051055;28;20206;-64
2022/06/10 09:51:43;;;;;;;23.53;21.03;;;;;;;24.35;64.81;98757.72;5050970;28;20195;-65
2022/06/10 09:54:26;;;;;;;23.33;20.83;;;;;;;24.56;65.30;98749.59;5050790;28;20195;-64
2022/06/10 09:57:52;;;;;;;25.45;22.75;;;;;;;25.07;64.52;98758.31;5050005;28;20929;-65
2022/06/10 10:00:25;;;;;;;22.97;19.63;;;;;;;25.60;62.78;98752.75;5036519;28;20196;-65
2022/06/10 10:03:07;;;;;;;19.30;16.97;;;;;;;25.97;60.89;98754.09;5062767;28;20212;-65
2022/06/10 10:05:47;;;;;;;21.93;17.87;;;;;;;26.10;60.13;98755.94;5050786;28;20222;-65
2022/06/10 10:08:24;;;;;;;20.83;18.63;;;;;;;26.39;60.01;98764.78;5049989;28;20941;-64
2022/06/10 10:10:55;;;;;;;19.27;17.23;;;;;;;26.69;58.01;98754.19;5066266;28;20229;-66
2022/06/10 10:13:47;;;;;;;22.27;17.13;;;;;;;26.92;57.67;98746.59;5070477;28;20199;-65
2022/06/10 10:16:37;;;;;;;17.83;16.03;;;;;;;26.97;56.47;98743.69;5069373;28;20203;-65
2022/06/10 10:19:22;;;;;;;18.47;16.67;;;;;;;26.70;58.47;98740.09;5055440;28;20237;-65
2022/06/10 10:22:00;;;;;;;22.23;20.02;;;;;;;26.58;58.94;98735.56;5069034;28;20445;-66
2022/06/10 10:24:27;;;;;;;23.38;18.98;;;;;;;26.54;58.98;98741.94;5070256;28;20202;-65
2022/06/10 10:26:58;;;;;;;21.55;19.45;;;;;;;26.10;59.65;98740.13;5057448;28;20200;-64
2022/06/10 10:29:27;;;;;;;21.23;19.03;;;;;;;26.01;60.87;98740.69;5050209;28;20929;-66
2022/06/10 10:31:59;;;;;;;21.10;19.00;;;;;;;26.14;61.06;98735.56;5064624;28;20195;-64
2022/06/10 10:34:29;;;;;;;21.90;19.70;;;;;;;26.00;59.79;98731.09;5069328;28;20215;-65
2022/06/10 10:36:59;;;;;;;22.50;20.17;;;;;;;25.93;60.64;98728.91;5066637;28;20183;-66
2022/06/10 10:39:29;;;;;;;21.77;19.43;;;;;;;25.98;61.13;98730.34;5069473;28;20204;-65
2022/06/10 10:42:00;;;;;;;23.23;21.00;;;;;;;26.14;61.31;98731.16;5066948;28;20196;-64
2022/06/10 10:44:38;;;;;;;24.83;21.90;;;;;;;26.18;60.93;98729.16;5068834;28;20474;-66
2022/06/10 10:47:22;;;;;;;24.20;21.87;;;;;;;26.45;60.35;98727.56;5067927;28;20643;-65
2022/06/10 10:49:52;;;;;;;26.23;23.53;;;;;;;26.74;59.21;98723.97;5067175;28;20685;-65
2022/06/10 10:52:23;;;;;;;25.23;21.43;;;;;;;26.99;58.11;98725.97;5069405;28;20278;-65
2022/06/10 10:54:54;;;;;;;23.15;20.98;;;;;;;26.80;57.62;98733.31;5069203;28;20437;-65
2022/06/10 10:57:26;;;;;;;22.43;20.07;;;;;;;26.85;57.15;98723.34;5068068;28;20200;-66
2022/06/10 11:00:04;;;;;;;23.63;21.30;;;;;;;26.75;57.69;98716.91;5064845;28;20267;-65
2022/06/10 11:02:36;;;;;;;23.13;20.83;;;;;;;26.68;57.84;98705.03;5066592;28;20222;-57
2022/06/10 11:05:31;;;;;;;22.57;20.37;;;;;;;26.52;58.26;98705.16;5066868;28;20176;-57
2022/06/10 11:08:21;;;;;;;26.83;23.57;;;;;;;26.87;58.12;98716.19;5057152;28;20191;-63
2022/06/10 11:11:14;;;;;;;31.17;27.90;;;;;;;26.99;57.01;98715.41;5067687;28;20180;-64
2022/06/10 11:13:47;;;;;;;26.00;23.23;;;;;;;26.96;57.70;98710.34;5066181;28;20192;-64
2022/06/10 11:16:38;;;;;;;27.37;24.60;;;;;;;26.79;58.54;98715.81;5068608;28;20202;-65
2022/06/10 11:19:19;;;;;;;25.23;22.27;;;;;;;26.79;58.22;98721.06;5060298;28;20307;-65
2022/06/10 11:21:55;;;;;;;33.43;27.80;;;;;;;26.73;59.08;98719.63;5069025;28;20662;-64
2022/06/10 11:24:27;;;;;;;28.63;25.42;;;;;;;26.59;59.76;98713.53;5052186;28;20210;-65
2022/06/10 11:26:55;;;;;;;32.50;27.98;;;;;;;26.45;60.14;98708.25;5050225;28;20196;-64
2022/06/10 11:29:23;;;;;;;30.25;27.17;;;;;;;26.39;60.55;98704.19;5066491;28;20196;-65
2022/06/10 11:31:54;;;;;;;30.03;26.83;;;;;;;26.47;60.30;98707.22;5068645;28;20702;-64
2022/06/10 11:34:29;;;;;;;32.03;28.70;;;;;;;26.66;60.20;98704.31;5068871;28;20268;-65
2022/06/10 11:36:58;;;;;;;32.23;26.67;;;;;;;26.83;60.14;98706.78;5069135;28;20642;-65
2022/06/10 11:39:28;;;;;;;31.20;28.07;;;;;;;26.73;59.11;98702.97;5069269;28;20195;-65
2022/06/10 11:42:08;;;;;;;35.77;30.67;;;;;;;26.77;59.44;98693.94;5068798;28;20716;-64
2022/06/10 11:44:41;;;;;;;32.47;29.27;;;;;;;26.63;60.07;98692.16;5068697;28;20199;-64
2022/06/10 11:47:16;;;;;;;31.47;28.07;;;;;;;26.67;60.10;98693.66;5069057;28;20648;-65
2022/06/10 11:49:51;;;;;;;35.90;31.40;;;;;;;26.71;60.25;98695.16;5066664;28;20214;-65